createdAt,value
2019-02-06T00:00:12.756Z,4.77
2019-02-06T00:01:12.744Z,4.79
2019-02-06T00:02:12.737Z,4.80
2019-02-06T00:03:12.739Z,4.79
2019-02-06T00:04:15.412Z,4.74
2019-02-06T00:05:14.381Z,4.79
2019-02-06T00:06:12.703Z,4.83
2019-02-06T00:07:12.673Z,4.74
2019-02-06T00:08:12.682Z,4.83
2019-02-06T00:09:12.650Z,4.79
2019-02-06T00:10:12.640Z,4.80
2019-02-06T00:11:12.634Z,4.74
2019-02-06T00:12:12.628Z,4.76
2019-02-06T00:13:12.630Z,4.74
2019-02-06T00:14:12.632Z,4.80
2019-02-06T00:15:12.634Z,4.76
2019-02-06T00:16:12.571Z,4.80
2019-02-06T00:17:12.575Z,4.83
2019-02-06T00:18:12.568Z,4.74
2019-02-06T00:19:12.545Z,4.79
2019-02-06T00:20:12.527Z,4.80
2019-02-06T00:21:12.566Z,4.73
2019-02-06T00:22:12.505Z,4.74
2019-02-06T00:23:12.520Z,4.77
2019-02-06T00:24:12.482Z,4.86
2019-02-06T00:25:12.476Z,4.83
2019-02-06T00:26:12.472Z,4.86
2019-02-06T00:27:12.450Z,4.76
2019-02-06T00:28:12.447Z,4.73
2019-02-06T00:29:12.461Z,4.83
2019-02-06T00:30:12.427Z,4.85
2019-02-06T00:31:12.417Z,4.83
2019-02-06T00:32:12.398Z,4.86
2019-02-06T00:33:12.385Z,4.79
2019-02-06T00:34:12.389Z,4.80
2019-02-06T00:35:12.362Z,4.88
2019-02-06T00:36:12.352Z,4.80
2019-02-06T00:37:12.345Z,4.80
2019-02-06T00:38:12.330Z,4.86
2019-02-06T00:39:12.335Z,4.88
2019-02-06T00:40:12.306Z,4.76
2019-02-06T00:41:12.301Z,4.90
2019-02-06T00:42:12.297Z,4.80
2019-02-06T00:43:12.355Z,4.90
2019-02-06T00:44:12.281Z,4.79
2019-02-06T00:45:12.250Z,4.83
2019-02-06T00:46:12.242Z,4.83
2019-02-06T00:47:12.251Z,4.90
2019-02-06T00:48:12.218Z,4.89
2019-02-06T00:49:12.254Z,4.88
2019-02-06T00:50:12.199Z,4.83
2019-02-06T00:51:13.301Z,4.74
2019-02-06T00:52:12.205Z,4.64
2019-02-06T00:53:12.162Z,4.74
2019-02-06T00:54:12.225Z,4.69
2019-02-06T00:55:12.155Z,4.80
2019-02-06T00:56:12.128Z,4.73
2019-02-06T00:57:12.112Z,4.67
2019-02-06T00:58:12.120Z,4.85
2019-02-06T00:59:12.103Z,4.83
2019-02-06T01:00:12.113Z,4.77
2019-02-06T01:01:12.126Z,4.76
2019-02-06T01:02:12.086Z,4.77
2019-02-06T01:03:12.067Z,4.80
2019-02-06T01:04:12.032Z,4.77
2019-02-06T01:05:12.044Z,4.76
2019-02-06T01:06:12.019Z,4.80
2019-02-06T01:07:12.008Z,4.76
2019-02-06T01:08:12.029Z,4.77
2019-02-06T01:09:11.986Z,4.83
2019-02-06T01:10:11.987Z,4.79
2019-02-06T01:11:11.962Z,4.85
2019-02-06T01:12:11.956Z,4.77
2019-02-06T01:13:11.943Z,4.74
2019-02-06T01:14:11.928Z,4.77
2019-02-06T01:15:11.942Z,4.74
2019-02-06T01:16:11.909Z,4.79
2019-02-06T01:17:11.897Z,4.79
2019-02-06T01:18:11.882Z,4.73
2019-02-06T01:19:11.875Z,4.80
2019-02-06T01:20:11.884Z,4.77
2019-02-06T01:21:11.963Z,4.71
2019-02-06T01:22:11.850Z,4.71
2019-02-06T01:23:11.831Z,4.66
2019-02-06T01:24:11.812Z,4.77
2019-02-06T01:25:11.899Z,4.73
2019-02-06T01:26:11.790Z,4.83
2019-02-06T01:27:11.789Z,4.77
2019-02-06T01:28:11.769Z,4.71
2019-02-06T01:29:11.758Z,4.69
2019-02-06T01:30:11.767Z,4.66
2019-02-06T01:31:11.811Z,4.67
2019-02-06T01:32:11.724Z,4.71
2019-02-06T01:33:11.726Z,4.67
2019-02-06T01:34:11.704Z,4.63
2019-02-06T01:35:11.722Z,4.71
2019-02-06T01:36:11.797Z,4.69
2019-02-06T01:37:11.663Z,4.67
2019-02-06T01:38:11.651Z,4.64
2019-02-06T01:39:11.648Z,4.67
2019-02-06T01:40:11.666Z,4.69
2019-02-06T01:41:11.624Z,4.70
2019-02-06T01:42:11.615Z,4.66
2019-02-06T01:43:11.598Z,4.66
2019-02-06T01:44:11.602Z,4.70
2019-02-06T01:45:11.602Z,4.63
2019-02-06T01:46:11.564Z,4.69
2019-02-06T01:47:11.559Z,4.70
2019-02-06T01:48:11.554Z,4.73
2019-02-06T01:49:11.537Z,4.66
2019-02-06T01:50:11.554Z,4.71
2019-02-06T01:51:11.544Z,4.69
2019-02-06T01:52:11.503Z,4.70
2019-02-06T01:53:11.493Z,4.69
2019-02-06T01:54:11.480Z,4.83
2019-02-06T01:55:11.473Z,4.69
2019-02-06T01:56:11.475Z,4.69
2019-02-06T01:57:11.444Z,4.66
2019-02-06T01:58:11.430Z,4.70
2019-02-06T01:59:11.446Z,4.79
2019-02-06T02:00:11.409Z,4.74
2019-02-06T02:01:11.416Z,4.70
2019-02-06T02:02:11.387Z,4.71
2019-02-06T02:03:11.375Z,4.67
2019-02-06T02:04:11.361Z,4.70
2019-02-06T02:05:11.367Z,4.67
2019-02-06T02:06:11.367Z,4.69
2019-02-06T02:07:11.330Z,4.66
2019-02-06T02:08:11.321Z,4.66
2019-02-06T02:09:11.316Z,4.66
2019-02-06T02:10:11.298Z,4.61
2019-02-06T02:11:11.306Z,4.64
2019-02-06T02:12:11.275Z,4.66
2019-02-06T02:13:11.268Z,4.56
2019-02-06T02:14:11.256Z,4.58
2019-02-06T02:15:11.244Z,4.69
2019-02-06T02:16:11.253Z,4.58
2019-02-06T02:17:11.223Z,4.61
2019-02-06T02:18:11.215Z,4.53
2019-02-06T02:19:11.225Z,4.56
2019-02-06T02:20:11.188Z,4.53
2019-02-06T02:21:11.445Z,4.64
2019-02-06T02:22:11.189Z,4.61
2019-02-06T02:23:11.154Z,4.51
2019-02-06T02:24:11.147Z,4.53
2019-02-06T02:25:11.135Z,4.53
2019-02-06T02:26:11.119Z,4.55
2019-02-06T02:27:11.127Z,4.51
2019-02-06T02:28:11.096Z,4.52
2019-02-06T02:29:11.093Z,4.48
2019-02-06T02:30:11.075Z,4.53
2019-02-06T02:31:11.063Z,4.59
2019-02-06T02:32:11.069Z,4.61
2019-02-06T02:33:11.047Z,4.55
2019-02-06T02:34:11.031Z,4.59
2019-02-06T02:35:11.019Z,4.61
2019-02-06T02:36:16.115Z,4.58
2019-02-06T02:37:12.017Z,4.56
2019-02-06T02:38:10.997Z,4.66
2019-02-06T02:39:10.982Z,4.58
2019-02-06T02:40:10.965Z,4.55
2019-02-06T02:41:10.954Z,4.45
2019-02-06T02:42:10.961Z,4.58
2019-02-06T02:43:10.941Z,4.59
2019-02-06T02:44:10.933Z,4.55
2019-02-06T02:45:10.909Z,4.49
2019-02-06T02:46:10.905Z,4.49
2019-02-06T02:47:10.905Z,4.51
2019-02-06T02:48:10.879Z,4.56
2019-02-06T02:49:10.869Z,4.56
2019-02-06T02:50:10.863Z,4.59
2019-02-06T02:51:11.033Z,4.58
2019-02-06T02:52:10.857Z,4.64
2019-02-06T02:53:10.833Z,4.56
2019-02-06T02:54:10.821Z,4.58
2019-02-06T02:55:10.808Z,4.63
2019-02-06T02:56:10.790Z,4.64
2019-02-06T02:57:10.803Z,4.56
2019-02-06T02:58:10.767Z,4.63
2019-02-06T02:59:10.757Z,4.59
2019-02-06T03:00:10.738Z,4.56
2019-02-06T03:01:10.738Z,4.69
2019-02-06T03:02:10.738Z,4.53
2019-02-06T03:03:10.715Z,4.61
2019-02-06T03:04:10.703Z,4.64
2019-02-06T03:05:10.687Z,4.58
2019-02-06T03:06:10.679Z,4.66
2019-02-06T03:07:10.685Z,4.61
2019-02-06T03:08:10.665Z,4.64
2019-02-06T03:09:10.644Z,4.56
2019-02-06T03:10:10.644Z,4.61
2019-02-06T03:11:10.627Z,4.63
2019-02-06T03:12:10.634Z,4.67
2019-02-06T03:13:10.598Z,4.52
2019-02-06T03:14:10.584Z,4.61
2019-02-06T03:15:10.612Z,4.56
2019-02-06T03:16:10.584Z,4.56
2019-02-06T03:17:10.570Z,4.59
2019-02-06T03:18:10.550Z,4.64
2019-02-06T03:19:10.529Z,4.53
2019-02-06T03:20:10.534Z,4.58
2019-02-06T03:21:10.511Z,4.59
2019-02-06T03:22:10.533Z,4.63
2019-02-06T03:23:10.489Z,4.63
2019-02-06T03:24:10.482Z,4.70
2019-02-06T03:25:10.464Z,4.63
2019-02-06T03:26:10.456Z,4.63
2019-02-06T03:27:10.469Z,4.67
2019-02-06T03:28:10.431Z,4.69
2019-02-06T03:29:10.429Z,4.61
2019-02-06T03:30:10.442Z,4.67
2019-02-06T03:31:10.405Z,4.56
2019-02-06T03:32:10.387Z,4.64
2019-02-06T03:33:10.406Z,4.70
2019-02-06T03:34:10.366Z,4.64
2019-02-06T03:35:10.350Z,4.63
2019-02-06T03:36:10.341Z,4.66
2019-02-06T03:37:10.342Z,4.74
2019-02-06T03:38:10.337Z,4.69
2019-02-06T03:39:10.314Z,4.74
2019-02-06T03:40:10.308Z,4.73
2019-02-06T03:41:10.283Z,4.66
2019-02-06T03:42:10.276Z,4.71
2019-02-06T03:43:10.331Z,4.66
2019-02-06T03:44:10.259Z,4.64
2019-02-06T03:45:10.246Z,4.69
2019-02-06T03:46:10.246Z,4.67
2019-02-06T03:47:10.234Z,4.63
2019-02-06T03:48:10.249Z,4.76
2019-02-06T03:49:10.202Z,4.77
2019-02-06T03:50:10.188Z,4.74
2019-02-06T03:51:10.175Z,4.83
2019-02-06T03:52:10.170Z,4.79
2019-02-06T03:53:10.154Z,4.79
2019-02-06T03:54:10.165Z,4.77
2019-02-06T03:55:10.137Z,4.85
2019-02-06T03:56:10.122Z,4.67
2019-02-06T03:57:10.112Z,4.73
2019-02-06T03:58:10.101Z,4.70
2019-02-06T03:59:10.110Z,4.71
2019-02-06T04:00:10.095Z,4.66
2019-02-06T04:01:11.467Z,4.73
2019-02-06T04:02:10.062Z,4.70
2019-02-06T04:03:10.046Z,4.77
2019-02-06T04:04:10.046Z,4.70
2019-02-06T04:05:10.019Z,4.69
2019-02-06T04:06:10.004Z,4.70
2019-02-06T04:07:09.998Z,4.70
2019-02-06T04:08:09.988Z,4.70
2019-02-06T04:09:10.019Z,4.64
2019-02-06T04:10:09.972Z,4.77
2019-02-06T04:11:09.960Z,4.74
2019-02-06T04:12:09.955Z,4.77
2019-02-06T04:13:09.939Z,4.77
2019-02-06T04:14:09.943Z,4.80
2019-02-06T04:15:09.919Z,4.77
2019-02-06T04:16:09.929Z,4.79
2019-02-06T04:17:09.918Z,4.83
2019-02-06T04:18:09.875Z,4.79
2019-02-06T04:19:09.884Z,4.86
2019-02-06T04:20:09.868Z,4.74
2019-02-06T04:21:09.846Z,4.77
2019-02-06T04:22:09.857Z,4.83
2019-02-06T04:23:09.821Z,4.80
2019-02-06T04:24:09.852Z,4.71
2019-02-06T04:25:09.803Z,4.79
2019-02-06T04:26:09.784Z,4.67
2019-02-06T04:27:09.770Z,4.73
2019-02-06T04:28:09.772Z,4.86
2019-02-06T04:29:09.756Z,4.83
2019-02-06T04:30:09.775Z,4.85
2019-02-06T04:31:09.757Z,4.77
2019-02-06T04:32:09.733Z,4.64
2019-02-06T04:33:09.710Z,4.76
2019-02-06T04:34:09.700Z,4.70
2019-02-06T04:35:09.710Z,4.74
2019-02-06T04:36:09.687Z,4.69
2019-02-06T04:37:09.673Z,4.67
2019-02-06T04:38:09.658Z,4.70
2019-02-06T04:39:09.639Z,4.70
2019-02-06T04:40:09.661Z,4.67
2019-02-06T04:41:09.625Z,4.64
2019-02-06T04:42:09.608Z,4.64
2019-02-06T04:43:09.607Z,4.63
2019-02-06T04:44:09.590Z,4.61
2019-02-06T04:45:09.578Z,4.53
2019-02-06T04:46:09.596Z,4.43
2019-02-06T04:47:09.585Z,4.49
2019-02-06T04:48:09.551Z,4.48
2019-02-06T04:49:09.536Z,4.41
2019-02-06T04:50:09.535Z,4.43
2019-02-06T04:51:09.558Z,4.37
2019-02-06T04:52:09.498Z,4.41
2019-02-06T04:53:09.493Z,4.35
2019-02-06T04:54:09.475Z,4.43
2019-02-06T04:55:09.471Z,4.33
2019-02-06T04:56:09.472Z,4.40
2019-02-06T04:57:09.630Z,4.30
2019-02-06T04:58:09.528Z,4.33
2019-02-06T04:59:09.424Z,4.34
2019-02-06T05:00:09.413Z,4.22
2019-02-06T05:01:09.435Z,4.22
2019-02-06T05:02:09.395Z,4.27
2019-02-06T05:03:09.379Z,4.18
2019-02-06T05:04:09.367Z,4.19
2019-02-06T05:05:09.357Z,4.10
2019-02-06T05:06:09.345Z,4.12
2019-02-06T05:07:18.703Z,4.12
2019-02-06T05:08:10.319Z,4.13
2019-02-06T05:09:09.353Z,3.95
2019-02-06T05:10:09.304Z,4.00
2019-02-06T05:11:09.289Z,3.98
2019-02-06T05:12:09.728Z,3.92
2019-02-06T05:13:09.263Z,3.79
2019-02-06T05:14:09.253Z,3.82
2019-02-06T05:15:09.246Z,3.77
2019-02-06T05:16:09.234Z,3.82
2019-02-06T05:17:09.245Z,3.82
2019-02-06T05:18:09.234Z,3.82
2019-02-06T05:19:09.201Z,3.80
2019-02-06T05:20:09.189Z,3.76
2019-02-06T05:21:09.175Z,3.76
2019-02-06T05:22:09.167Z,3.88
2019-02-06T05:23:09.175Z,3.86
2019-02-06T05:24:09.150Z,3.83
2019-02-06T05:25:09.129Z,3.77
2019-02-06T05:26:09.137Z,3.80
2019-02-06T05:27:09.128Z,3.79
2019-02-06T05:28:09.119Z,3.77
2019-02-06T05:29:09.081Z,3.77
2019-02-06T05:30:09.079Z,3.82
2019-02-06T05:31:09.077Z,3.83
2019-02-06T05:32:09.054Z,3.79
2019-02-06T05:33:09.058Z,3.79
2019-02-06T05:34:09.027Z,3.82
2019-02-06T05:35:09.022Z,3.88
2019-02-06T05:36:09.006Z,3.74
2019-02-06T05:37:08.995Z,3.79
2019-02-06T05:38:09.017Z,3.82
2019-02-06T05:39:08.978Z,3.73
2019-02-06T05:40:08.965Z,3.74
2019-02-06T05:41:08.946Z,3.79
2019-02-06T05:42:08.944Z,3.79
2019-02-06T05:43:08.935Z,3.68
2019-02-06T05:44:08.931Z,3.68
2019-02-06T05:45:08.906Z,3.73
2019-02-06T05:46:08.899Z,3.62
2019-02-06T05:47:08.885Z,3.66
2019-02-06T05:48:08.869Z,3.65
2019-02-06T05:49:08.876Z,3.68
2019-02-06T05:50:08.846Z,3.59
2019-02-06T05:51:08.834Z,3.58
2019-02-06T05:52:08.827Z,3.59
2019-02-06T05:53:08.822Z,3.62
2019-02-06T05:54:08.844Z,3.62
2019-02-06T05:55:08.792Z,3.68
2019-02-06T05:56:08.784Z,3.64
2019-02-06T05:57:08.771Z,3.56
2019-02-06T05:58:08.758Z,3.59
2019-02-06T05:59:08.777Z,3.46
2019-02-06T06:00:08.739Z,3.55
2019-02-06T06:01:08.731Z,3.37
2019-02-06T06:02:08.739Z,3.37
2019-02-06T06:03:08.702Z,3.33
2019-02-06T06:04:08.702Z,3.28
2019-02-06T06:05:08.693Z,3.24
2019-02-06T06:06:11.753Z,3.24
2019-02-06T06:07:08.655Z,3.29
2019-02-06T06:08:08.666Z,3.27
2019-02-06T06:09:08.639Z,3.25
2019-02-06T06:10:08.651Z,3.22
2019-02-06T06:11:08.801Z,3.32
2019-02-06T06:12:08.592Z,3.29
2019-02-06T06:13:08.607Z,3.24
2019-02-06T06:14:08.583Z,3.28
2019-02-06T06:15:08.582Z,3.29
2019-02-06T06:16:08.564Z,3.24
2019-02-06T06:17:08.566Z,3.40
2019-02-06T06:18:08.529Z,3.35
2019-02-06T06:19:08.521Z,3.37
2019-02-06T06:20:08.548Z,3.29
2019-02-06T06:21:08.489Z,3.25
2019-02-06T06:22:08.487Z,3.29
2019-02-06T06:23:08.518Z,3.25
2019-02-06T06:24:09.169Z,3.25
2019-02-06T06:25:08.449Z,3.27
2019-02-06T06:26:08.454Z,3.22
2019-02-06T06:27:08.430Z,3.35
2019-02-06T06:28:08.429Z,3.21
2019-02-06T06:29:08.413Z,3.28
2019-02-06T06:30:08.408Z,3.27
2019-02-06T06:31:08.398Z,3.24
2019-02-06T06:32:08.366Z,3.15
2019-02-06T06:33:08.360Z,3.25
2019-02-06T06:34:08.354Z,3.19
2019-02-06T06:35:08.342Z,3.19
2019-02-06T06:36:08.354Z,3.18
2019-02-06T06:37:08.315Z,3.21
2019-02-06T06:38:08.303Z,3.22
2019-02-06T06:39:08.295Z,3.19
2019-02-06T06:40:08.289Z,3.10
2019-02-06T06:41:08.291Z,3.17
2019-02-06T06:42:08.259Z,3.12
2019-02-06T06:43:08.250Z,3.14
2019-02-06T06:44:08.235Z,3.12
2019-02-06T06:45:08.218Z,3.17
2019-02-06T06:46:08.220Z,3.06
2019-02-06T06:47:08.224Z,3.15
2019-02-06T06:48:08.195Z,3.10
2019-02-06T06:49:08.202Z,3.12
2019-02-06T06:50:08.167Z,3.06
2019-02-06T06:51:08.170Z,3.14
2019-02-06T06:52:08.166Z,3.09
2019-02-06T06:53:08.133Z,3.03
2019-02-06T06:54:08.157Z,3.09
2019-02-06T06:55:08.106Z,2.99
2019-02-06T06:56:08.101Z,2.99
2019-02-06T06:57:08.119Z,2.96
2019-02-06T06:58:08.078Z,2.94
2019-02-06T06:59:08.060Z,2.97
2019-02-06T07:00:08.053Z,2.91
2019-02-06T07:01:10.789Z,2.89
2019-02-06T07:02:08.053Z,2.91
2019-02-06T07:03:08.020Z,2.88
2019-02-06T07:04:08.016Z,2.86
2019-02-06T07:05:07.996Z,2.97
2019-02-06T07:06:07.986Z,2.88
2019-02-06T07:07:07.989Z,2.91
2019-02-06T07:08:11.367Z,2.83
2019-02-06T07:09:08.961Z,2.91
2019-02-06T07:10:08.014Z,2.88
2019-02-06T07:11:07.941Z,2.82
2019-02-06T07:12:07.939Z,2.86
2019-02-06T07:13:07.905Z,2.88
2019-02-06T07:14:07.899Z,2.94
2019-02-06T07:15:07.881Z,2.96
2019-02-06T07:16:07.871Z,2.94
2019-02-06T07:17:07.879Z,3.03
2019-02-06T07:18:07.872Z,3.03
2019-02-06T07:19:07.841Z,3.00
2019-02-06T07:20:07.827Z,3.03
2019-02-06T07:21:07.821Z,3.01
2019-02-06T07:22:07.809Z,2.96
2019-02-06T07:23:07.807Z,3.06
2019-02-06T07:24:07.782Z,2.99
2019-02-06T07:25:07.765Z,3.06
2019-02-06T07:26:07.759Z,2.97
2019-02-06T07:27:07.753Z,3.04
2019-02-06T07:28:07.759Z,3.06
2019-02-06T07:29:07.720Z,3.00
2019-02-06T07:30:07.718Z,2.91
2019-02-06T07:31:07.726Z,2.85
2019-02-06T07:32:07.697Z,2.94
2019-02-06T07:33:07.707Z,2.96
2019-02-06T07:34:07.663Z,2.97
2019-02-06T07:35:07.661Z,2.94
2019-02-06T07:36:07.643Z,3.03
2019-02-06T07:37:07.631Z,3.00
2019-02-06T07:38:07.658Z,2.97
2019-02-06T07:39:07.618Z,2.99
2019-02-06T07:40:07.599Z,3.03
2019-02-06T07:41:07.595Z,3.06
2019-02-06T07:42:07.576Z,3.04
2019-02-06T07:43:07.613Z,2.97
2019-02-06T07:44:07.554Z,2.96
2019-02-06T07:45:07.544Z,2.97
2019-02-06T07:46:07.567Z,2.91
2019-02-06T07:47:07.530Z,2.96
2019-02-06T07:48:07.509Z,3.03
2019-02-06T07:49:07.520Z,3.01
2019-02-06T07:50:07.512Z,3.00
2019-02-06T07:51:08.391Z,2.97
2019-02-06T07:52:07.459Z,2.99
2019-02-06T07:53:07.460Z,2.96
2019-02-06T07:54:07.461Z,2.96
2019-02-06T07:55:07.437Z,2.89
2019-02-06T07:56:07.421Z,2.96
2019-02-06T07:57:07.410Z,2.91
2019-02-06T07:58:07.592Z,2.82
2019-02-06T07:59:07.461Z,2.94
2019-02-06T08:00:07.417Z,2.97
2019-02-06T08:01:07.373Z,2.97
2019-02-06T08:02:07.359Z,3.04
2019-02-06T08:03:07.344Z,2.96
2019-02-06T08:04:07.349Z,3.03
2019-02-06T08:05:07.369Z,3.06
2019-02-06T08:06:07.316Z,3.14
2019-02-06T08:07:07.303Z,3.15
2019-02-06T08:08:07.284Z,3.14
2019-02-06T08:09:07.295Z,3.22
2019-02-06T08:10:07.267Z,3.15
2019-02-06T08:11:07.247Z,3.24
2019-02-06T08:12:07.240Z,3.25
2019-02-06T08:13:07.233Z,3.22
2019-02-06T08:14:07.261Z,3.27
2019-02-06T08:15:07.211Z,3.19
2019-02-06T08:16:07.533Z,3.25
2019-02-06T08:17:07.201Z,3.19
2019-02-06T08:18:07.167Z,3.25
2019-02-06T08:19:07.197Z,3.24
2019-02-06T08:20:07.152Z,3.19
2019-02-06T08:21:07.321Z,3.24
2019-02-06T08:22:07.176Z,3.21
2019-02-06T08:23:07.113Z,3.25
2019-02-06T08:24:07.141Z,3.21
2019-02-06T08:25:07.149Z,3.27
2019-02-06T08:26:07.126Z,3.19
2019-02-06T08:27:07.086Z,3.25
2019-02-06T08:28:07.058Z,3.24
2019-02-06T08:29:07.059Z,3.15
2019-02-06T08:30:07.077Z,3.24
2019-02-06T08:31:07.063Z,3.19
2019-02-06T08:32:07.056Z,3.22
2019-02-06T08:33:07.063Z,3.25
2019-02-06T08:34:07.007Z,3.19
2019-02-06T08:35:07.066Z,3.25
2019-02-06T08:36:06.990Z,3.29
2019-02-06T08:37:06.957Z,3.21
2019-02-06T08:38:06.951Z,3.19
2019-02-06T08:39:06.935Z,3.36
2019-02-06T08:40:06.947Z,3.36
2019-02-06T08:41:06.915Z,3.29
2019-02-06T08:42:06.906Z,3.28
2019-02-06T08:43:06.886Z,3.22
2019-02-06T08:44:06.933Z,3.18
2019-02-06T08:45:06.886Z,3.37
2019-02-06T08:46:06.862Z,3.25
2019-02-06T08:47:06.862Z,3.27
2019-02-06T08:48:06.827Z,3.27
2019-02-06T08:49:06.832Z,3.28
2019-02-06T08:50:07.018Z,3.33
2019-02-06T08:51:06.804Z,3.44
2019-02-06T08:52:06.812Z,3.29
2019-02-06T08:53:06.782Z,3.35
2019-02-06T08:54:06.764Z,3.35
2019-02-06T08:55:06.810Z,3.35
2019-02-06T08:56:06.741Z,3.44
2019-02-06T08:57:06.738Z,3.44
2019-02-06T08:58:06.720Z,3.35
2019-02-06T08:59:06.705Z,3.48
2019-02-06T09:00:06.710Z,3.54
2019-02-06T09:01:06.697Z,3.46
2019-02-06T09:02:06.680Z,3.52
2019-02-06T09:03:06.658Z,3.59
2019-02-06T09:04:06.661Z,3.56
2019-02-06T09:05:07.684Z,3.54
2019-02-06T09:06:06.674Z,3.65
2019-02-06T09:07:06.624Z,3.64
2019-02-06T09:08:06.612Z,3.56
2019-02-06T09:09:06.592Z,3.64
2019-02-06T09:10:06.594Z,3.59
2019-02-06T09:11:06.608Z,3.66
2019-02-06T09:12:06.562Z,3.59
2019-02-06T09:13:06.545Z,3.61
2019-02-06T09:14:06.555Z,3.62
2019-02-06T09:15:06.527Z,3.61
2019-02-06T09:16:06.567Z,3.77
2019-02-06T09:17:06.501Z,3.79
2019-02-06T09:18:06.496Z,3.77
2019-02-06T09:19:06.488Z,3.79
2019-02-06T09:20:06.474Z,3.83
2019-02-06T09:21:06.499Z,3.84
2019-02-06T09:22:06.453Z,3.86
2019-02-06T09:23:06.445Z,3.91
2019-02-06T09:24:06.422Z,3.97
2019-02-06T09:25:06.430Z,3.98
2019-02-06T09:26:06.438Z,4.01
2019-02-06T09:27:06.398Z,4.10
2019-02-06T09:28:06.382Z,4.08
2019-02-06T09:29:06.369Z,4.10
2019-02-06T09:30:06.355Z,4.16
2019-02-06T09:31:06.362Z,4.18
2019-02-06T09:32:06.338Z,4.26
2019-02-06T09:33:06.318Z,4.31
2019-02-06T09:34:06.319Z,4.31
2019-02-06T09:35:06.309Z,4.35
2019-02-06T09:36:06.312Z,4.35
2019-02-06T09:37:06.275Z,4.37
2019-02-06T09:38:06.338Z,4.43
2019-02-06T09:39:11.812Z,4.45
2019-02-06T09:40:07.240Z,4.45
2019-02-06T09:41:06.263Z,4.46
2019-02-06T09:42:06.243Z,4.49
2019-02-06T09:43:06.206Z,4.41
2019-02-06T09:44:06.207Z,4.45
2019-02-06T09:45:06.191Z,4.53
2019-02-06T09:46:06.180Z,4.51
2019-02-06T09:47:06.185Z,4.53
2019-02-06T09:48:06.160Z,4.55
2019-02-06T09:49:06.145Z,4.63
2019-02-06T09:50:06.129Z,4.58
2019-02-06T09:51:06.297Z,4.64
2019-02-06T09:52:06.136Z,4.66
2019-02-06T09:53:06.099Z,4.74
2019-02-06T09:54:06.099Z,4.80
2019-02-06T09:55:06.073Z,4.85
2019-02-06T09:56:06.070Z,5.06
2019-02-06T09:57:06.089Z,4.93
2019-02-06T09:58:06.041Z,4.98
2019-02-06T09:59:06.042Z,4.96
2019-02-06T10:00:06.028Z,5.01
2019-02-06T10:01:06.018Z,5.07
2019-02-06T10:02:06.016Z,5.13
2019-02-06T10:03:05.991Z,5.22
2019-02-06T10:04:05.981Z,5.33
2019-02-06T10:05:05.974Z,5.31
2019-02-06T10:06:05.962Z,5.32
2019-02-06T10:07:05.963Z,5.40
2019-02-06T10:08:05.937Z,5.44
2019-02-06T10:09:05.920Z,5.49
2019-02-06T10:10:05.927Z,5.44
2019-02-06T10:11:05.897Z,5.47
2019-02-06T10:12:05.925Z,5.61
2019-02-06T10:13:05.877Z,5.54
2019-02-06T10:14:05.866Z,5.62
2019-02-06T10:15:05.869Z,5.72
2019-02-06T10:16:05.870Z,5.77
2019-02-06T10:17:05.862Z,5.83
2019-02-06T10:18:05.823Z,5.86
2019-02-06T10:19:05.809Z,5.80
2019-02-06T10:20:05.801Z,5.97
2019-02-06T10:21:05.788Z,5.86
2019-02-06T10:22:05.797Z,5.97
2019-02-06T10:23:05.780Z,6.00
2019-02-06T10:24:05.753Z,5.94
2019-02-06T10:25:05.750Z,6.01
2019-02-06T10:26:05.759Z,6.03
2019-02-06T10:27:05.781Z,6.04
2019-02-06T10:28:05.806Z,6.07
2019-02-06T10:29:05.697Z,6.11
2019-02-06T10:30:05.687Z,6.08
2019-02-06T10:31:05.679Z,6.05
2019-02-06T10:32:05.704Z,6.04
2019-02-06T10:33:05.658Z,6.13
2019-02-06T10:34:05.640Z,6.15
2019-02-06T10:35:05.648Z,6.04
2019-02-06T10:36:05.625Z,6.10
2019-02-06T10:37:05.649Z,6.08
2019-02-06T10:38:05.604Z,6.04
2019-02-06T10:39:05.576Z,6.04
2019-02-06T10:40:05.586Z,6.03
2019-02-06T10:41:05.562Z,5.98
2019-02-06T10:42:05.570Z,5.98
2019-02-06T10:43:05.542Z,5.83
2019-02-06T10:44:05.526Z,5.85
2019-02-06T10:45:05.517Z,5.67
2019-02-06T10:46:05.496Z,5.61
2019-02-06T10:47:05.510Z,5.67
2019-02-06T10:48:05.498Z,5.62
2019-02-06T10:49:05.472Z,5.67
2019-02-06T10:50:05.458Z,5.80
2019-02-06T10:51:05.448Z,5.89
2019-02-06T10:52:05.451Z,6.04
2019-02-06T10:53:05.424Z,6.21
2019-02-06T10:54:05.408Z,6.21
2019-02-06T10:55:05.400Z,6.27
2019-02-06T10:56:05.386Z,6.30
2019-02-06T10:57:05.426Z,6.41
2019-02-06T10:58:05.372Z,6.42
2019-02-06T10:59:05.349Z,6.56
2019-02-06T11:00:05.340Z,6.62
2019-02-06T11:01:05.326Z,6.75
2019-02-06T11:02:05.318Z,6.75
2019-02-06T11:03:05.320Z,6.81
2019-02-06T11:04:05.326Z,6.81
2019-02-06T11:05:05.281Z,6.91
2019-02-06T11:06:05.268Z,6.77
2019-02-06T11:07:08.136Z,6.74
2019-02-06T11:08:05.278Z,6.74
2019-02-06T11:09:05.254Z,6.88
2019-02-06T11:10:05.248Z,6.92
2019-02-06T11:11:05.217Z,6.96
2019-02-06T11:12:05.204Z,6.93
2019-02-06T11:13:05.210Z,7.03
2019-02-06T11:14:05.184Z,7.10
2019-02-06T11:15:05.182Z,7.11
2019-02-06T11:16:05.163Z,7.26
2019-02-06T11:17:05.144Z,7.16
2019-02-06T11:18:05.158Z,7.17
2019-02-06T11:19:05.218Z,7.21
2019-02-06T11:20:05.115Z,7.13
2019-02-06T11:21:05.106Z,7.05
2019-02-06T11:22:05.166Z,7.08
2019-02-06T11:23:05.090Z,7.08
2019-02-06T11:24:05.063Z,7.14
2019-02-06T11:25:05.050Z,7.16
2019-02-06T11:26:05.057Z,7.18
2019-02-06T11:27:05.041Z,7.21
2019-02-06T11:28:05.064Z,7.17
2019-02-06T11:29:05.018Z,7.20
2019-02-06T11:30:05.015Z,7.18
2019-02-06T11:31:05.034Z,7.31
2019-02-06T11:32:04.975Z,7.26
2019-02-06T11:33:04.985Z,7.32
2019-02-06T11:34:04.954Z,7.35
2019-02-06T11:35:04.943Z,7.29
2019-02-06T11:36:04.927Z,7.32
2019-02-06T11:37:04.920Z,7.16
2019-02-06T11:38:04.930Z,7.26
2019-02-06T11:39:04.914Z,7.29
2019-02-06T11:40:04.892Z,7.32
2019-02-06T11:41:04.866Z,7.18
2019-02-06T11:42:04.860Z,7.18
2019-02-06T11:43:04.875Z,7.18
2019-02-06T11:44:04.848Z,7.31
2019-02-06T11:45:04.825Z,7.25
2019-02-06T11:46:04.827Z,7.26
2019-02-06T11:47:04.803Z,7.34
2019-02-06T11:48:04.811Z,7.42
2019-02-06T11:49:04.787Z,7.42
2019-02-06T11:50:04.767Z,7.46
2019-02-06T11:51:04.756Z,7.50
2019-02-06T11:52:04.748Z,7.57
2019-02-06T11:53:04.762Z,7.62
2019-02-06T11:54:04.735Z,7.59
2019-02-06T11:55:04.713Z,7.64
2019-02-06T11:56:04.703Z,7.62
2019-02-06T11:57:04.687Z,7.60
2019-02-06T11:58:04.679Z,7.64
2019-02-06T11:59:04.701Z,7.64
2019-02-06T12:00:04.667Z,7.78
2019-02-06T12:01:04.653Z,7.73
2019-02-06T12:02:04.697Z,7.76
2019-02-06T12:03:04.632Z,7.75
2019-02-06T12:04:04.627Z,7.80
2019-02-06T12:05:04.605Z,7.76
2019-02-06T12:06:04.600Z,7.76
2019-02-06T12:07:04.595Z,7.64
2019-02-06T12:08:04.568Z,7.66
2019-02-06T12:09:04.578Z,7.56
2019-02-06T12:10:09.945Z,7.60
2019-02-06T12:11:05.555Z,7.54
2019-02-06T12:12:04.520Z,7.54
2019-02-06T12:13:04.509Z,7.57
2019-02-06T12:14:04.528Z,7.54
2019-02-06T12:15:04.484Z,7.57
2019-02-06T12:16:04.475Z,7.57
2019-02-06T12:17:04.515Z,7.54
2019-02-06T12:18:04.474Z,7.56
2019-02-06T12:19:04.477Z,7.60
2019-02-06T12:20:04.457Z,7.62
2019-02-06T12:21:04.425Z,7.57
2019-02-06T12:22:04.407Z,7.52
2019-02-06T12:23:04.407Z,7.68
2019-02-06T12:24:04.435Z,7.68
2019-02-06T12:25:04.377Z,7.68
2019-02-06T12:26:04.366Z,7.64
2019-02-06T12:27:04.356Z,7.62
2019-02-06T12:28:05.166Z,7.73
2019-02-06T12:29:04.349Z,7.69
2019-02-06T12:30:04.368Z,7.68
2019-02-06T12:31:04.511Z,7.70
2019-02-06T12:32:04.297Z,7.69
2019-02-06T12:33:04.284Z,7.70
2019-02-06T12:34:04.331Z,7.68
2019-02-06T12:35:04.266Z,7.73
2019-02-06T12:36:04.249Z,7.78
2019-02-06T12:37:04.238Z,7.75
2019-02-06T12:38:04.229Z,7.62
2019-02-06T12:39:04.226Z,7.66
2019-02-06T12:40:04.204Z,7.73
2019-02-06T12:41:04.195Z,7.72
2019-02-06T12:42:04.181Z,7.73
2019-02-06T12:43:04.165Z,7.73
2019-02-06T12:44:04.222Z,7.68
2019-02-06T12:45:04.141Z,7.69
2019-02-06T12:46:04.132Z,7.68
2019-02-06T12:47:04.147Z,7.59
2019-02-06T12:48:04.113Z,7.62
2019-02-06T12:49:04.099Z,7.60
2019-02-06T12:50:04.117Z,7.57
2019-02-06T12:51:04.082Z,7.57
2019-02-06T12:52:04.072Z,7.68
2019-02-06T12:53:04.089Z,7.56
2019-02-06T12:54:04.052Z,7.54
2019-02-06T12:55:04.053Z,7.56
2019-02-06T12:56:04.023Z,7.52
2019-02-06T12:57:04.006Z,7.54
2019-02-06T12:58:03.996Z,7.52
2019-02-06T12:59:03.998Z,7.46
2019-02-06T13:00:03.998Z,7.39
2019-02-06T13:01:04.096Z,7.41
2019-02-06T13:02:03.961Z,7.38
2019-02-06T13:03:03.968Z,7.36
2019-02-06T13:04:03.936Z,7.36
2019-02-06T13:05:03.945Z,7.35
2019-02-06T13:06:03.911Z,7.32
2019-02-06T13:07:03.895Z,7.35
2019-02-06T13:08:03.883Z,7.28
2019-02-06T13:09:03.976Z,7.26
2019-02-06T13:10:03.881Z,7.20
2019-02-06T13:11:04.402Z,7.16
2019-02-06T13:12:03.923Z,7.26
2019-02-06T13:13:03.827Z,7.23
2019-02-06T13:14:03.822Z,7.16
2019-02-06T13:15:03.828Z,7.25
2019-02-06T13:16:03.850Z,7.16
2019-02-06T13:17:03.815Z,7.14
2019-02-06T13:18:03.768Z,7.18